Time;durP1;ratioP1;P1;durP2;ratioP2;P2;SDS_P1;SDS_P2;PMS_P1;PMS_P2;Temp;Humidity;BMP_temperature;BMP_pressure;BME280_temperature;BME280_humidity;BME280_pressure;Samples;Min_cycle;Max_cycle;Signal;HPM_P1;HPM_P2
2024/01/18 00:02:04;;;;;;;25.50;14.63;;;-0.40;99.90;;;;;;6147695;23;20169;-83
2024/01/18 00:04:32;;;;;;;21.52;15.40;;;-0.30;99.90;;;;;;6153934;23;20180;-83
2024/01/18 00:06:59;;;;;;;19.23;12.70;;;-0.50;99.90;;;;;;6154721;23;20184;-83
2024/01/18 00:09:26;;;;;;;22.08;14.70;;;-0.50;99.90;;;;;;6154096;23;20188;-83
2024/01/18 00:11:53;;;;;;;22.05;14.80;;;-0.50;99.90;;;;;;6147479;23;20181;-83
2024/01/18 00:14:20;;;;;;;22.33;14.70;;;-0.50;99.90;;;;;;6146794;23;20263;-83
2024/01/18 00:16:47;;;;;;;23.60;15.85;;;-0.40;99.90;;;;;;6144559;23;20181;-83
2024/01/18 00:19:14;;;;;;;18.63;13.10;;;-0.50;99.90;;;;;;6143953;23;20188;-84
2024/01/18 00:21:42;;;;;;;23.38;15.02;;;-0.60;99.90;;;;;;6148143;23;20180;-84
2024/01/18 00:24:09;;;;;;;18.20;13.68;;;-0.60;99.90;;;;;;6146338;23;20204;-84
2024/01/18 00:26:37;;;;;;;26.58;17.13;;;-0.50;99.90;;;;;;6147611;23;20232;-84
2024/01/18 00:29:04;;;;;;;23.15;15.30;;;-0.50;99.90;;;;;;6147269;23;20204;-84
2024/01/18 00:31:30;;;;;;;22.90;15.52;;;-0.50;99.90;;;;;;6149308;23;20188;-84
2024/01/18 00:33:58;;;;;;;20.60;14.20;;;-0.50;99.90;;;;;;6140975;23;20207;-83
2024/01/18 00:36:25;;;;;;;23.85;16.55;;;-0.50;99.90;;;;;;6144545;23;20180;-84
2024/01/18 00:38:53;;;;;;;20.88;15.63;;;-0.60;99.90;;;;;;6143097;23;20177;-84
2024/01/18 00:41:20;;;;;;;23.63;14.73;;;-0.60;99.90;;;;;;6137531;23;20192;-84
2024/01/18 00:43:47;;;;;;;19.27;14.85;;;-0.70;99.90;;;;;;6135520;23;20256;-83
2024/01/18 00:46:14;;;;;;;21.75;15.48;;;-0.60;99.90;;;;;;6134837;23;20181;-83
2024/01/18 00:48:41;;;;;;;19.45;13.77;;;-0.70;99.90;;;;;;6134972;23;20533;-84
2024/01/18 00:51:08;;;;;;;20.65;14.55;;;-0.70;97.60;;;;;;6147709;23;20181;-83
2024/01/18 00:53:35;;;;;;;26.60;17.13;;;-0.70;78.10;;;;;;6146979;23;20240;-83
2024/01/18 00:56:03;;;;;;;23.50;16.13;;;-0.60;99.90;;;;;;6143343;23;20208;-84
2024/01/18 00:58:30;;;;;;;22.17;15.93;;;-0.60;99.90;;;;;;6140395;23;20181;-84
2024/01/18 01:00:57;;;;;;;25.80;17.50;;;-0.70;90.10;;;;;;6137564;23;20209;-83
2024/01/18 01:03:23;;;;;;;21.00;15.32;;;-0.60;34.90;;;;;;6136596;23;20231;-83
2024/01/18 01:05:50;;;;;;;24.83;17.02;;;-0.60;49.60;;;;;;6139774;23;20212;-84
2024/01/18 01:08:17;;;;;;;20.52;14.63;;;-0.70;1.00;;;;;;6135338;23;20197;-84
2024/01/18 01:10:44;;;;;;;17.67;15.43;;;-0.60;34.30;;;;;;6134533;23;20177;-84
2024/01/18 01:13:12;;;;;;;22.85;15.35;;;-0.50;24.30;;;;;;6134672;23;20228;-84
2024/01/18 01:15:39;;;;;;;22.17;16.35;;;-0.50;12.60;;;;;;6135572;23;20256;-84
2024/01/18 01:18:06;;;;;;;24.30;15.25;;;-0.50;1.00;;;;;;6135936;23;20177;-84
2024/01/18 01:20:33;;;;;;;21.35;14.35;;;-0.60;1.00;;;;;;6141050;23;20209;-84
2024/01/18 01:22:59;;;;;;;25.98;15.80;;;-0.70;1.00;;;;;;6135215;23;20201;-84
2024/01/18 01:25:26;;;;;;;22.30;15.75;;;-0.70;1.00;;;;;;6133665;23;20667;-83
2024/01/18 01:27:53;;;;;;;22.65;15.45;;;-0.80;1.00;;;;;;6133391;23;20272;-82
2024/01/18 01:30:21;;;;;;;19.75;14.55;;;-0.60;1.00;;;;;;6134576;23;20267;-82
2024/01/18 01:32:48;;;;;;;17.90;13.82;;;-0.60;1.00;;;;;;6135103;23;20514;-84
2024/01/18 01:35:15;;;;;;;24.65;15.27;;;-0.50;1.00;;;;;;6134850;23;20711;-85
2024/01/18 01:37:42;;;;;;;24.30;16.00;;;-0.50;1.00;;;;;;6134778;23;20584;-83
2024/01/18 01:40:09;;;;;;;19.42;15.45;;;-0.50;1.00;;;;;;6134579;23;20228;-84
2024/01/18 01:42:36;;;;;;;20.45;14.80;;;-0.40;1.00;;;;;;6134486;23;20225;-84
2024/01/18 01:45:04;;;;;;;23.42;14.95;;;-0.40;1.00;;;;;;6135861;23;20261;-83
2024/01/18 01:47:32;;;;;;;21.73;15.32;;;-0.50;1.00;;;;;;6136664;23;20177;-84
2024/01/18 01:49:59;;;;;;;22.00;14.82;;;-0.50;1.00;;;;;;6137311;23;20188;-84
2024/01/18 01:55:27;;;;;;;24.88;14.70;;;-0.60;1.00;;;;;;6142858;23;20189;-91
2024/01/18 01:58:12;;;;;;;22.45;15.25;;;-0.70;1.00;;;;;;6147538;23;20161;-90
2024/01/18 02:00:51;;;;;;;24.55;14.70;;;-0.80;1.00;;;;;;6155519;23;20189;-91
2024/01/18 02:03:28;;;;;;;22.38;14.15;;;-0.50;1.00;;;;;;6155734;23;20188;-90
2024/01/18 02:06:02;;;;;;;21.48;14.27;;;-0.60;1.00;;;;;;6155661;23;20164;-90
2024/01/18 02:08:34;;;;;;;19.23;14.63;;;-0.60;1.00;;;;;;6155238;23;20189;-90
2024/01/18 02:11:13;;;;;;;20.83;14.10;;;-0.50;1.00;;;;;;6155842;23;20165;-90
2024/01/18 02:13:55;;;;;;;23.40;14.93;;;-0.50;1.00;;;;;;6154952;23;20188;-90
2024/01/18 02:16:47;;;;;;;17.77;14.38;;;-0.60;1.00;;;;;;6154991;23;20154;-90
2024/01/18 02:19:34;;;;;;;21.27;14.23;;;-0.50;1.00;;;;;;6155370;23;20164;-91
2024/01/18 02:22:12;;;;;;;21.75;14.23;;;-0.70;99.90;;;;;;6155211;23;20153;-89
2024/01/18 02:25:01;;;;;;;20.65;14.15;;;-0.80;99.90;;;;;;6154412;23;20177;-90
2024/01/18 02:27:34;;;;;;;19.00;14.07;;;-0.80;99.90;;;;;;6149278;23;20165;-90
2024/01/18 02:30:12;;;;;;;22.58;15.32;;;-0.70;1.00;;;;;;6147079;23;20178;-90
2024/01/18 02:32:46;;;;;;;18.55;14.93;;;-0.80;99.90;;;;;;6146445;23;20232;-90
2024/01/18 02:38:04;;;;;;;23.40;16.15;;;-0.60;1.00;;;;;;6146447;23;20176;-91
2024/01/18 02:40:46;;;;;;;21.30;16.17;;;-0.50;99.90;;;;;;6149927;23;20161;-90
2024/01/18 02:43:19;;;;;;;26.58;15.88;;;-0.80;99.90;;;;;;6146621;23;20198;-90
2024/01/18 02:45:48;;;;;;;25.13;16.65;;;-0.20;1.00;;;;;;6143315;23;20169;-90
2024/01/18 02:48:21;;;;;;;25.40;15.20;;;-0.70;1.00;;;;;;6147807;23;20184;-89
2024/01/18 02:50:50;;;;;;;25.83;14.80;;;-0.70;1.00;;;;;;6153475;23;20173;-90
2024/01/18 02:53:22;;;;;;;25.00;15.90;;;-0.40;1.00;;;;;;6149227;23;20189;-90
2024/01/18 02:55:53;;;;;;;19.52;14.73;;;-0.60;99.90;;;;;;6148404;23;20192;-90
2024/01/18 03:03:59;;;;;;;21.35;14.90;;;-0.80;99.90;;;;;;6153953;23;20203;-89
2024/01/18 03:06:35;;;;;;;23.45;15.40;;;-0.70;99.90;;;;;;6153396;23;20232;-90
2024/01/18 03:09:08;;;;;;;25.85;14.60;;;-0.50;1.00;;;;;;6147826;23;20244;-90
2024/01/18 03:11:40;;;;;;;20.85;14.27;;;-0.50;1.00;;;;;;6136329;23;20165;-89
2024/01/18 03:14:20;;;;;;;23.08;14.68;;;-0.50;1.00;;;;;;6135172;23;20225;-90
2024/01/18 03:16:50;;;;;;;23.15;15.88;;;-0.60;1.00;;;;;;6135842;23;20189;-91
2024/01/18 03:19:28;;;;;;;22.05;14.63;;;-0.20;1.00;;;;;;6143073;23;20173;-90
2024/01/18 03:22:04;;;;;;;21.83;14.45;;;0.00;1.00;;;;;;6152559;23;20161;-88
2024/01/18 03:27:12;;;;;;;21.95;15.20;;;-0.60;1.00;;;;;;6213622;23;20171;-89
2024/01/18 03:29:41;;;;;;;26.35;15.90;;;-0.60;1.00;;;;;;6211606;23;20199;-89
2024/01/18 03:32:09;;;;;;;21.92;15.13;;;-0.40;99.90;;;;;;6195270;23;20206;-89
2024/01/18 03:34:36;;;;;;;22.48;15.15;;;-0.70;1.00;;;;;;6193609;23;20199;-89
2024/01/18 03:37:09;;;;;;;22.48;15.60;;;-0.10;1.00;;;;;;6195229;23;20179;-90
2024/01/18 03:39:48;;;;;;;18.60;14.15;;;-0.60;1.00;;;;;;6196405;23;20196;-90
2024/01/18 03:42:18;;;;;;;20.95;14.90;;;-0.90;99.90;;;;;;6199635;23;20164;-91
2024/01/18 03:44:49;;;;;;;26.83;18.33;;;-0.90;99.90;;;;;;6209417;23;20215;-90
2024/01/18 03:47:27;;;;;;;21.70;15.63;;;-0.80;1.00;;;;;;6213534;23;20190;-89
2024/01/18 03:50:06;;;;;;;22.77;15.30;;;-0.80;1.00;;;;;;6212969;23;20203;-90
2024/01/18 03:52:38;;;;;;;25.33;15.25;;;-0.70;99.90;;;;;;6211463;23;20199;-89
2024/01/18 03:58:43;;;;;;;22.40;16.98;;;-0.90;1.00;;;;;;6166966;23;20174;-90
2024/01/18 04:01:36;;;;;;;23.90;17.20;;;-1.00;1.00;;;;;;6202688;23;20199;-91
2024/01/18 04:04:14;;;;;;;23.75;16.38;;;-0.90;1.00;;;;;;6197633;23;20247;-90
2024/01/18 04:06:50;;;;;;;21.67;15.50;;;-0.30;1.00;;;;;;6197719;23;20164;-92
2024/01/18 04:09:27;;;;;;;22.05;15.20;;;-0.60;1.00;;;;;;6196247;23;20218;-91
2024/01/18 04:12:01;;;;;;;20.67;15.85;;;-0.70;1.00;;;;;;6195758;23;20187;-92
2024/01/18 04:14:34;;;;;;;25.38;17.17;;;0.00;1.00;;;;;;6194801;23;20222;-91
2024/01/18 04:17:11;;;;;;;22.42;14.75;;;-0.80;1.00;;;;;;6196334;23;20179;-91
2024/01/18 04:19:42;;;;;;;18.92;13.70;;;-0.90;1.00;;;;;;6208894;23;20159;-89
2024/01/18 04:22:15;;;;;;;22.08;16.65;;;-0.80;1.00;;;;;;6213679;23;20159;-89
2024/01/18 04:27:25;;;;;;;27.30;16.98;;;-1.00;1.00;;;;;;6211508;23;20167;-89
2024/01/18 04:30:05;;;;;;;26.48;16.70;;;-1.00;1.00;;;;;;6199234;23;20218;-91
2024/01/18 04:35:23;;;;;;;22.60;16.20;;;-1.00;1.00;;;;;;6136708;23;20184;-90
2024/01/18 04:38:00;;;;;;;25.33;16.88;;;-1.00;1.00;;;;;;6135217;23;20200;-90
2024/01/18 04:40:36;;;;;;;29.45;15.68;;;-1.00;1.00;;;;;;6136323;23;20177;-90
2024/01/18 04:43:24;;;;;;;21.77;16.77;;;-1.00;1.00;;;;;;6136502;23;20216;-90
2024/01/18 04:46:09;;;;;;;29.40;16.52;;;-1.00;1.00;;;;;;6136521;23;20173;-90
2024/01/18 04:48:36;;;;;;;24.67;16.70;;;-1.00;1.00;;;;;;6136196;23;20201;-84
2024/01/18 04:51:05;;;;;;;24.55;16.00;;;-1.00;1.00;;;;;;6137337;23;20181;-84
2024/01/18 04:53:32;;;;;;;25.63;16.85;;;-1.00;1.00;;;;;;6137076;23;20208;-85
2024/01/18 04:55:59;;;;;;;22.00;15.68;;;-0.90;1.00;;;;;;6136922;23;20177;-85
2024/01/18 04:58:26;;;;;;;24.30;17.23;;;-1.00;1.00;;;;;;6137964;23;20227;-84
2024/01/18 05:00:53;;;;;;;28.02;18.35;;;-0.90;1.00;;;;;;6137179;23;20181;-84
2024/01/18 05:03:20;;;;;;;23.55;16.80;;;-1.00;1.00;;;;;;6137281;23;20201;-85
2024/01/18 05:05:47;;;;;;;28.88;17.50;;;-1.00;1.00;;;;;;6147172;23;20208;-83
2024/01/18 05:08:15;;;;;;;27.73;17.48;;;-1.00;1.00;;;;;;6132094;23;20201;-85
2024/01/18 05:10:42;;;;;;;29.17;20.10;;;-1.10;1.00;;;;;;6133670;23;20289;-85
2024/01/18 05:13:09;;;;;;;29.98;18.40;;;-1.00;1.00;;;;;;6139832;23;20507;-84
2024/01/18 05:15:36;;;;;;;29.42;17.98;;;-1.00;1.00;;;;;;6146087;23;20181;-84
2024/01/18 05:18:02;;;;;;;26.02;17.45;;;-1.00;1.00;;;;;;6138630;23;20277;-86
2024/01/18 05:20:29;;;;;;;22.77;16.10;;;-1.10;1.00;;;;;;6138604;23;20197;-85
2024/01/18 05:22:56;;;;;;;23.08;16.23;;;-1.00;1.00;;;;;;6138296;23;20223;-85
2024/01/18 05:25:24;;;;;;;23.92;16.55;;;-1.00;1.00;;;;;;6137795;23;20212;-85
2024/01/18 05:27:51;;;;;;;30.23;18.88;;;-1.00;1.00;;;;;;6138157;23;20236;-84
2024/01/18 05:30:20;;;;;;;26.30;19.50;;;-1.00;1.00;;;;;;6137586;23;20225;-85
2024/01/18 05:32:47;;;;;;;25.10;16.08;;;-1.20;1.00;;;;;;6138080;23;20204;-85
2024/01/18 05:35:14;;;;;;;26.67;17.60;;;-1.10;1.00;;;;;;6137763;23;20209;-84
2024/01/18 05:37:41;;;;;;;30.95;18.08;;;-1.20;1.00;;;;;;6138545;23;20231;-85
2024/01/18 05:40:09;;;;;;;27.67;17.58;;;-1.10;1.00;;;;;;6152536;23;20177;-84
2024/01/18 05:42:37;;;;;;;24.13;17.55;;;-1.00;1.00;;;;;;6148832;23;20184;-84
2024/01/18 05:45:05;;;;;;;24.45;16.20;;;-1.10;1.00;;;;;;6140117;23;20215;-84
2024/01/18 05:47:32;;;;;;;25.45;16.40;;;-1.00;1.00;;;;;;6139160;23;20204;-85
2024/01/18 05:49:59;;;;;;;28.25;18.10;;;-0.90;1.00;;;;;;6137143;23;20229;-85
2024/01/18 05:52:27;;;;;;;29.55;18.83;;;-0.90;1.00;;;;;;6137503;23;20204;-85
2024/01/18 05:54:54;;;;;;;28.77;16.85;;;-0.90;1.00;;;;;;6138000;23;20188;-84
2024/01/18 05:57:21;;;;;;;24.38;18.75;;;-0.90;1.00;;;;;;6138787;23;20192;-84
2024/01/18 05:59:49;;;;;;;29.10;17.40;;;-1.00;1.00;;;;;;6139247;23;20169;-85
2024/01/18 06:02:16;;;;;;;28.60;18.65;;;-1.00;1.00;;;;;;6138190;23;20229;-84
2024/01/18 06:04:43;;;;;;;26.00;17.35;;;-1.10;1.00;;;;;;6138868;23;20461;-83
2024/01/18 06:07:10;;;;;;;40.78;26.90;;;-1.00;1.00;;;;;;6138124;23;20237;-84
2024/01/18 06:09:37;;;;;;;24.27;17.15;;;-1.00;1.00;;;;;;6138077;23;20283;-83
2024/01/18 06:12:06;;;;;;;26.88;19.02;;;-0.90;1.00;;;;;;6139363;23;20219;-84
2024/01/18 06:14:33;;;;;;;29.77;19.25;;;-1.00;1.00;;;;;;6148983;23;20228;-84
2024/01/18 06:17:01;;;;;;;26.00;18.02;;;-1.00;1.00;;;;;;6140723;23;20624;-85
2024/01/18 06:19:28;;;;;;;27.08;17.88;;;-0.90;1.00;;;;;;6138464;23;20272;-85
2024/01/18 06:21:55;;;;;;;29.95;19.20;;;-0.80;1.00;;;;;;6153006;23;20208;-84
2024/01/18 06:24:22;;;;;;;26.58;18.75;;;-0.80;1.00;;;;;;6146403;23;20184;-84
2024/01/18 06:26:49;;;;;;;35.13;19.27;;;-0.90;1.00;;;;;;6141469;23;20187;-84
2024/01/18 06:29:16;;;;;;;29.30;19.30;;;-1.10;1.00;;;;;;6138504;23;20652;-84
2024/01/18 06:31:43;;;;;;;23.58;17.17;;;-0.90;1.00;;;;;;6137544;23;20512;-84
2024/01/18 06:34:11;;;;;;;27.63;17.85;;;-0.70;1.00;;;;;;6136577;23;20569;-87
2024/01/18 06:36:38;;;;;;;25.02;17.50;;;-0.60;1.00;;;;;;6134915;23;20188;-84
2024/01/18 06:39:05;;;;;;;27.88;19.38;;;-0.60;1.00;;;;;;6144075;23;20184;-85
2024/01/18 06:41:32;;;;;;;36.33;18.27;;;-0.60;1.00;;;;;;6154758;23;20178;-83
2024/01/18 06:44:02;;;;;;;25.45;17.60;;;-0.70;1.00;;;;;;6151395;23;20181;-83
2024/01/18 06:46:30;;;;;;;27.45;18.77;;;-1.00;1.00;;;;;;6140393;23;20184;-83
2024/01/18 06:48:57;;;;;;;34.75;17.70;;;-0.90;1.00;;;;;;6137772;23;20201;-85
2024/01/18 06:51:25;;;;;;;24.25;17.20;;;-1.10;1.00;;;;;;6137712;23;20189;-83
2024/01/18 06:53:52;;;;;;;27.42;19.75;;;-1.20;1.00;;;;;;6137428;23;20189;-85
2024/01/18 06:56:19;;;;;;;26.92;19.40;;;-1.20;1.00;;;;;;6138510;23;20238;-84
2024/01/18 06:58:46;;;;;;;32.10;19.02;;;-1.10;1.00;;;;;;6139484;23;20224;-84
2024/01/18 07:01:13;;;;;;;27.40;17.55;;;-1.10;1.00;;;;;;6139722;23;20233;-84
2024/01/18 07:03:41;;;;;;;27.50;18.90;;;-1.10;1.00;;;;;;6137867;23;20256;-85
2024/01/18 07:06:08;;;;;;;32.08;20.65;;;-1.10;1.00;;;;;;6136294;23;20174;-85
2024/01/18 07:08:38;;;;;;;25.63;17.98;;;-1.20;1.00;;;;;;6135711;23;20585;-85
2024/01/18 07:11:05;;;;;;;27.55;18.33;;;-1.20;1.00;;;;;;6135907;23;20204;-85
2024/01/18 07:13:31;;;;;;;31.67;18.77;;;-1.20;1.00;;;;;;6136675;23;20200;-85
2024/01/18 07:15:58;;;;;;;30.98;19.60;;;-1.20;1.00;;;;;;6139817;23;20201;-85
2024/01/18 07:18:25;;;;;;;31.80;19.10;;;-1.20;1.00;;;;;;6142827;23;20236;-83
2024/01/18 07:20:52;;;;;;;36.05;20.30;;;-1.20;1.00;;;;;;6143374;23;20236;-84
2024/01/18 07:23:19;;;;;;;30.98;21.27;;;-1.20;1.00;;;;;;6139608;23;20512;-83
2024/01/18 07:25:47;;;;;;;29.00;18.92;;;-1.20;1.00;;;;;;6134957;23;20181;-85
2024/01/18 07:28:14;;;;;;;32.47;20.20;;;-1.20;1.00;;;;;;6142756;23;20212;-85
2024/01/18 07:30:41;;;;;;;31.73;20.17;;;-1.20;1.00;;;;;;6147756;23;20192;-83
2024/01/18 07:33:08;;;;;;;34.28;22.30;;;-1.10;1.00;;;;;;6147833;23;20216;-86
2024/01/18 07:35:35;;;;;;;35.03;23.90;;;-1.20;1.00;;;;;;6151830;23;20182;-84
2024/01/18 07:38:02;;;;;;;35.72;24.80;;;-1.20;14.20;;;;;;6138562;23;20279;-84
2024/01/18 07:40:29;;;;;;;34.00;22.17;;;-1.30;1.00;;;;;;6140611;23;20228;-85
2024/01/18 07:42:57;;;;;;;37.03;25.10;;;-1.40;1.00;;;;;;6138672;23;20181;-85
2024/01/18 07:45:24;;;;;;;36.50;22.48;;;-1.50;1.00;;;;;;6138770;23;20233;-84
2024/01/18 07:47:50;;;;;;;33.05;21.80;;;-1.40;20.90;;;;;;6136004;23;20240;-85
2024/01/18 07:50:17;;;;;;;32.67;19.55;;;-1.30;41.10;;;;;;6135711;23;20268;-85
2024/01/18 07:52:44;;;;;;;34.85;20.95;;;-1.20;1.00;;;;;;6137398;23;20189;-85
2024/01/18 07:55:11;;;;;;;32.65;21.40;;;-1.20;1.00;;;;;;6136576;23;20269;-84
2024/01/18 07:57:38;;;;;;;32.92;21.45;;;-1.10;1.00;;;;;;6132529;23;20181;-83
2024/01/18 08:00:08;;;;;;;33.65;22.00;;;-1.00;1.00;;;;;;6132702;23;20203;-83
2024/01/18 08:02:35;;;;;;;34.75;22.02;;;-1.00;1.00;;;;;;6133442;23;20244;-83
2024/01/18 08:05:02;;;;;;;38.88;21.73;;;-0.80;71.60;;;;;;6133249;23;20212;-83
2024/01/18 08:07:29;;;;;;;27.90;21.50;;;-0.80;1.00;;;;;;6133101;23;20177;-84
2024/01/18 08:09:56;;;;;;;32.58;20.42;;;-0.90;1.00;;;;;;6144247;23;20181;-83
2024/01/18 08:12:23;;;;;;;34.38;20.48;;;-1.00;1.00;;;;;;6141396;23;20201;-83
2024/01/18 08:14:49;;;;;;;36.55;21.88;;;-1.10;1.00;;;;;;6135302;23;20232;-84
2024/01/18 08:17:18;;;;;;;30.55;19.88;;;-1.10;1.00;;;;;;6134278;23;20212;-84
2024/01/18 08:19:45;;;;;;;27.45;18.48;;;-1.00;1.00;;;;;;6134559;23;20196;-83
2024/01/18 08:22:12;;;;;;;31.92;19.90;;;-0.80;1.00;;;;;;6134566;23;20244;-84
2024/01/18 08:24:39;;;;;;;28.13;19.17;;;-0.70;1.00;;;;;;6135907;23;20183;-83
2024/01/18 08:27:05;;;;;;;33.22;20.25;;;-0.60;1.00;;;;;;6146411;23;20181;-84
2024/01/18 08:29:32;;;;;;;27.80;20.30;;;-0.80;1.00;;;;;;6139765;23;20221;-83
2024/01/18 08:32:01;;;;;;;32.72;21.70;;;-0.80;1.00;;;;;;6139461;23;20181;-83
2024/01/18 08:34:30;;;;;;;32.17;20.08;;;-0.80;1.00;;;;;;6147697;23;20181;-83
2024/01/18 08:36:57;;;;;;;30.52;20.38;;;-0.70;1.00;;;;;;6153172;23;20200;-83
2024/01/18 08:39:23;;;;;;;33.72;19.83;;;-0.60;1.00;;;;;;6152604;23;20249;-82
2024/01/18 08:41:50;;;;;;;32.75;20.27;;;-0.40;1.00;;;;;;6151248;23;20191;-82
2024/01/18 08:44:17;;;;;;;32.58;21.70;;;-0.30;1.00;;;;;;6142809;23;20180;-83
2024/01/18 08:46:44;;;;;;;35.78;21.38;;;-0.50;1.00;;;;;;6139454;23;20215;-83
2024/01/18 08:49:11;;;;;;;31.83;19.83;;;-0.40;1.00;;;;;;6140465;23;20239;-84
2024/01/18 08:51:39;;;;;;;33.03;22.17;;;-0.30;1.00;;;;;;6149683;23;20201;-83
2024/01/18 08:54:07;;;;;;;34.58;21.33;;;-0.30;1.00;;;;;;6141056;23;20208;-82
2024/01/18 08:56:36;;;;;;;30.95;21.73;;;-0.30;1.00;;;;;;6138626;23;20208;-83
2024/01/18 08:59:03;;;;;;;28.33;19.85;;;-0.30;1.00;;;;;;6137427;23;20204;-82
2024/01/18 09:01:29;;;;;;;33.60;22.48;;;-0.20;99.90;;;;;;6137022;23;20215;-83
2024/01/18 09:03:56;;;;;;;34.40;21.42;;;-0.20;99.90;;;;;;6136632;23;20188;-84
2024/01/18 09:06:23;;;;;;;43.28;22.40;;;-0.10;99.90;;;;;;6142051;23;20211;-84
2024/01/18 09:08:51;;;;;;;36.92;21.58;;;-0.20;99.90;;;;;;6151583;23;20192;-82
2024/01/18 09:11:18;;;;;;;37.38;21.20;;;-0.20;99.90;;;;;;6138251;23;20193;-83
2024/01/18 09:13:45;;;;;;;29.23;20.60;;;-0.10;99.90;;;;;;6137320;23;20181;-83
2024/01/18 09:16:16;;;;;;;36.38;22.70;;;-0.10;99.90;;;;;;6132760;23;20188;-83
2024/01/18 09:18:43;;;;;;;31.75;22.48;;;-0.10;99.90;;;;;;6131078;23;20206;-83
2024/01/18 09:21:10;;;;;;;32.55;21.20;;;-0.10;99.90;;;;;;6133027;23;20260;-83
2024/01/18 09:23:37;;;;;;;40.28;22.77;;;0.00;99.90;;;;;;6130975;23;20181;-83
2024/01/18 09:26:05;;;;;;;38.67;21.70;;;0.00;99.90;;;;;;6134832;23;20181;-83
2024/01/18 09:28:32;;;;;;;34.03;22.77;;;0.10;99.90;;;;;;6134249;23;20512;-82
2024/01/18 09:30:59;;;;;;;30.20;21.10;;;0.10;99.90;;;;;;6132750;23;20252;-83
2024/01/18 09:33:26;;;;;;;38.33;21.77;;;0.10;99.90;;;;;;6134774;23;20192;-83
2024/01/18 09:35:53;;;;;;;36.45;23.05;;;0.30;99.90;;;;;;6134882;23;20177;-83
2024/01/18 09:38:19;;;;;;;30.67;20.92;;;0.20;99.90;;;;;;6134925;23;20200;-83
2024/01/18 09:40:47;;;;;;;32.50;22.30;;;0.10;99.90;;;;;;6135077;23;20177;-83
2024/01/18 09:43:17;;;;;;;37.85;23.50;;;0.20;99.90;;;;;;6135470;23;20565;-84
2024/01/18 09:45:48;;;;;;;32.33;22.33;;;0.10;99.90;;;;;;6146206;23;20230;-83
2024/01/18 09:48:16;;;;;;;34.50;22.67;;;0.00;99.90;;;;;;6151624;23;20209;-82
2024/01/18 09:50:44;;;;;;;30.55;22.42;;;0.30;1.00;;;;;;6153059;23;20261;-83
2024/01/18 09:53:12;;;;;;;38.47;23.75;;;0.10;99.90;;;;;;6150778;23;20181;-83
2024/01/18 09:55:39;;;;;;;37.58;24.10;;;0.00;99.90;;;;;;6144895;23;20188;-81
2024/01/18 09:58:12;;;;;;;37.50;24.33;;;0.00;99.90;;;;;;6136755;23;20235;-82
2024/01/18 10:00:44;;;;;;;32.50;22.98;;;0.10;1.00;;;;;;6146422;23;20159;-82
2024/01/18 10:03:11;;;;;;;31.60;23.00;;;0.20;99.90;;;;;;6144327;23;20161;-84
2024/01/18 10:05:38;;;;;;;33.15;23.00;;;0.30;99.90;;;;;;6143412;23;20188;-84
2024/01/18 10:08:05;;;;;;;32.95;21.85;;;0.40;99.90;;;;;;6143291;23;20224;-84
2024/01/18 10:10:32;;;;;;;33.47;22.65;;;0.30;99.90;;;;;;6137813;23;20604;-84
2024/01/18 10:13:01;;;;;;;29.88;19.52;;;0.40;99.90;;;;;;6140906;23;20256;-83
2024/01/18 10:15:33;;;;;;;32.15;22.75;;;0.40;99.90;;;;;;6142415;23;20189;-82
2024/01/18 10:18:02;;;;;;;37.97;24.10;;;0.50;99.90;;;;;;6145941;23;20201;-82
2024/01/18 10:20:29;;;;;;;31.45;22.85;;;0.30;99.90;;;;;;6143919;23;20179;-83
2024/01/18 10:22:56;;;;;;;35.75;24.63;;;0.10;99.90;;;;;;6146826;23;20200;-84
2024/01/18 10:25:25;;;;;;;35.45;23.08;;;0.10;99.90;;;;;;6134373;23;20651;-83
2024/01/18 10:27:53;;;;;;;30.10;22.30;;;0.20;1.00;;;;;;6133690;23;20204;-83
2024/01/18 10:30:19;;;;;;;34.75;22.42;;;0.10;99.90;;;;;;6134597;23;20177;-83
2024/01/18 10:32:47;;;;;;;33.75;23.83;;;0.30;99.90;;;;;;6153038;23;20185;-83
2024/01/18 10:35:23;;;;;;;33.05;24.25;;;0.20;99.90;;;;;;6152752;23;20250;-83
2024/01/18 10:38:00;;;;;;;34.65;22.40;;;0.30;99.90;;;;;;6145717;23;20660;-83
2024/01/18 10:40:30;;;;;;;33.30;23.65;;;0.50;1.00;;;;;;6136260;23;20196;-83
2024/01/18 10:42:57;;;;;;;37.00;24.00;;;0.40;99.90;;;;;;6135155;23;20177;-83
2024/01/18 10:45:24;;;;;;;34.35;23.67;;;0.40;99.90;;;;;;6135707;23;20185;-83
2024/01/18 10:50:28;;;;;;;35.80;24.95;;;0.50;99.90;;;;;;6208600;23;20143;-87
2024/01/18 10:52:58;;;;;;;41.42;24.10;;;0.40;99.90;;;;;;6192459;23;20176;-88
2024/01/18 10:55:25;;;;;;;37.45;25.15;;;0.50;99.90;;;;;;6192050;23;20266;-88
2024/01/18 10:57:52;;;;;;;37.83;25.42;;;0.40;99.90;;;;;;6201425;23;20178;-88
2024/01/18 11:00:19;;;;;;;37.00;23.98;;;0.30;99.90;;;;;;6205989;23;20199;-88
2024/01/18 11:02:46;;;;;;;35.25;23.30;;;0.40;1.00;;;;;;6201588;23;20224;-89
2024/01/18 11:05:17;;;;;;;35.00;22.83;;;0.20;99.90;;;;;;6206448;23;20183;-87
2024/01/18 11:07:46;;;;;;;35.97;24.35;;;0.10;99.90;;;;;;6212610;23;20156;-88
2024/01/18 11:10:14;;;;;;;38.22;24.42;;;0.40;1.00;;;;;;6212846;23;20187;-87
2024/01/18 11:12:42;;;;;;;31.73;23.83;;;0.10;1.00;;;;;;6210868;23;20211;-88
2024/01/18 11:15:11;;;;;;;33.33;22.90;;;0.10;1.00;;;;;;6198762;23;20202;-88
2024/01/18 11:17:45;;;;;;;40.80;25.10;;;0.10;1.00;;;;;;6195387;23;20482;-88
2024/01/18 11:20:12;;;;;;;39.28;23.40;;;0.30;1.00;;;;;;6195147;23;20219;-88
2024/01/18 11:22:40;;;;;;;32.42;24.10;;;0.30;99.90;;;;;;6194561;23;20202;-88
2024/01/18 11:25:10;;;;;;;36.55;23.83;;;0.50;1.00;;;;;;6194405;23;20172;-88
2024/01/18 11:27:39;;;;;;;34.22;23.45;;;0.60;99.90;;;;;;6195088;23;20205;-87
2024/01/18 11:30:13;;;;;;;36.75;24.60;;;0.30;99.90;;;;;;6195416;23;20206;-88
2024/01/18 11:32:40;;;;;;;47.58;31.15;;;0.30;1.00;;;;;;6200900;23;20187;-87
2024/01/18 11:35:09;;;;;;;50.10;30.65;;;0.40;1.00;;;;;;6213769;23;20164;-87
2024/01/18 11:37:36;;;;;;;38.70;26.95;;;0.30;1.00;;;;;;6214243;23;20175;-87
2024/01/18 11:40:09;;;;;;;34.22;24.52;;;0.40;1.00;;;;;;6214227;23;20175;-86
2024/01/18 11:42:36;;;;;;;34.65;23.55;;;0.40;1.00;;;;;;6214398;23;20152;-87
2024/01/18 11:45:17;;;;;;;33.38;22.27;;;0.40;99.90;;;;;;6209788;23;20182;-88
2024/01/18 11:47:47;;;;;;;31.92;21.38;;;0.90;99.90;;;;;;6195191;23;20312;-88
2024/01/18 11:50:17;;;;;;;35.47;22.05;;;0.60;99.90;;;;;;6195964;23;20724;-87
2024/01/18 11:52:45;;;;;;;36.42;23.30;;;0.50;99.90;;;;;;6195223;23;20258;-88
2024/01/18 11:55:16;;;;;;;32.88;23.77;;;0.50;99.90;;;;;;6208179;23;20167;-88
2024/01/18 11:57:43;;;;;;;40.97;23.95;;;0.30;99.90;;;;;;6214074;23;20148;-88
2024/01/18 12:00:13;;;;;;;33.83;23.85;;;0.30;1.00;;;;;;6213634;23;20191;-87
2024/01/18 12:02:42;;;;;;;38.60;24.83;;;0.30;1.00;;;;;;6198758;23;20599;-87
2024/01/18 12:05:09;;;;;;;33.72;24.25;;;0.30;1.00;;;;;;6196778;23;20176;-88
2024/01/18 12:07:38;;;;;;;34.40;23.90;;;0.10;1.00;;;;;;6195144;23;20187;-88
2024/01/18 12:10:07;;;;;;;39.72;22.10;;;0.10;1.00;;;;;;6196443;23;20235;-88
2024/01/18 12:12:36;;;;;;;34.83;23.95;;;0.10;1.00;;;;;;6195773;23;20217;-88
2024/01/18 12:15:04;;;;;;;39.03;23.75;;;0.10;1.00;;;;;;6196605;23;20179;-88
2024/01/18 12:17:30;;;;;;;39.90;25.77;;;0.10;1.00;;;;;;6197674;23;20176;-89
2024/01/18 12:19:59;;;;;;;42.25;25.17;;;0.10;1.00;;;;;;6207025;23;20199;-88
2024/01/18 12:22:26;;;;;;;40.20;23.35;;;0.10;1.00;;;;;;6206873;23;20453;-88
2024/01/18 12:24:54;;;;;;;31.48;22.77;;;0.00;1.00;;;;;;6203577;23;20174;-87
2024/01/18 12:27:24;;;;;;;37.70;24.38;;;0.00;1.00;;;;;;6197300;23;20175;-88
2024/01/18 12:29:54;;;;;;;37.70;24.35;;;0.10;1.00;;;;;;6207024;23;20206;-87
2024/01/18 12:32:21;;;;;;;35.60;25.38;;;0.20;1.00;;;;;;6202990;23;20180;-88
2024/01/18 12:34:48;;;;;;;37.85;25.35;;;0.00;1.00;;;;;;6194159;23;20191;-88
2024/01/18 12:37:16;;;;;;;33.35;23.60;;;-0.10;1.00;;;;;;6193667;23;20180;-87
2024/01/18 12:39:42;;;;;;;43.15;26.48;;;-0.20;1.00;;;;;;6193640;23;20195;-88
2024/01/18 12:42:10;;;;;;;37.55;23.88;;;-0.20;1.00;;;;;;6194413;23;20505;-88
2024/01/18 12:44:37;;;;;;;34.67;22.40;;;0.00;1.00;;;;;;6196306;23;20235;-88
2024/01/18 12:47:05;;;;;;;39.55;25.13;;;-0.20;1.00;;;;;;6196781;23;20176;-88
2024/01/18 12:49:33;;;;;;;39.10;24.85;;;-0.20;1.00;;;;;;6198758;23;20207;-87
2024/01/18 12:52:01;;;;;;;34.65;24.33;;;-0.20;1.00;;;;;;6197686;23;20199;-89
2024/01/18 12:54:29;;;;;;;39.10;25.52;;;-0.10;1.00;;;;;;6196115;23;20521;-88
2024/01/18 12:56:58;;;;;;;41.75;25.23;;;-0.10;1.00;;;;;;6196397;23;20174;-88
2024/01/18 12:59:25;;;;;;;44.03;25.02;;;-0.10;1.00;;;;;;6194892;23;20278;-88
2024/01/18 13:01:53;;;;;;;34.95;24.60;;;0.00;1.00;;;;;;6196445;23;20175;-87
2024/01/18 13:04:24;;;;;;;32.33;23.42;;;0.00;1.00;;;;;;6194444;23;20180;-88
2024/01/18 13:06:53;;;;;;;39.45;24.55;;;0.00;1.00;;;;;;6194601;23;20215;-88
2024/01/18 13:09:21;;;;;;;38.17;25.30;;;-0.10;1.00;;;;;;6193352;23;20199;-88
2024/01/18 13:11:49;;;;;;;35.83;24.85;;;-0.10;1.00;;;;;;6192814;23;20202;-89